sensor_id;sensor_type;location;lat;lon;timestamp;P1;durP1;ratioP1;P2;durP2;ratioP2
10432;SDS011;5263;48.680;9.004;2024-01-11T00:02:12;43.97;;;25.23;;
10432;SDS011;5263;48.680;9.004;2024-01-11T00:04:38;43.47;;;24.47;;
10432;SDS011;5263;48.680;9.004;2024-01-11T00:07:05;44.87;;;24.70;;
10432;SDS011;5263;48.680;9.004;2024-01-11T00:09:31;50.40;;;25.50;;
10432;SDS011;5263;48.680;9.004;2024-01-11T00:11:56;42.93;;;24.17;;
10432;SDS011;5263;48.680;9.004;2024-01-11T00:14:22;44.10;;;23.93;;
10432;SDS011;5263;48.680;9.004;2024-01-11T00:16:47;45.60;;;22.87;;
10432;SDS011;5263;48.680;9.004;2024-01-11T00:19:13;43.83;;;24.33;;
10432;SDS011;5263;48.680;9.004;2024-01-11T00:21:38;41.00;;;24.87;;
10432;SDS011;5263;48.680;9.004;2024-01-11T00:24:04;44.60;;;24.30;;
10432;SDS011;5263;48.680;9.004;2024-01-11T00:26:29;47.17;;;23.77;;
10432;SDS011;5263;48.680;9.004;2024-01-11T00:28:55;44.43;;;24.77;;
10432;SDS011;5263;48.680;9.004;2024-01-11T00:31:20;48.03;;;24.63;;
10432;SDS011;5263;48.680;9.004;2024-01-11T00:33:46;51.13;;;25.60;;
10432;SDS011;5263;48.680;9.004;2024-01-11T00:36:16;45.63;;;26.47;;
10432;SDS011;5263;48.680;9.004;2024-01-11T00:38:44;42.27;;;24.17;;
10432;SDS011;5263;48.680;9.004;2024-01-11T00:41:09;46.77;;;25.13;;
10432;SDS011;5263;48.680;9.004;2024-01-11T00:43:35;42.47;;;24.77;;
10432;SDS011;5263;48.680;9.004;2024-01-11T00:46:00;42.63;;;24.17;;
10432;SDS011;5263;48.680;9.004;2024-01-11T00:48:26;48.50;;;25.43;;
10432;SDS011;5263;48.680;9.004;2024-01-11T00:50:51;51.77;;;26.10;;
10432;SDS011;5263;48.680;9.004;2024-01-11T00:53:17;50.27;;;24.83;;
10432;SDS011;5263;48.680;9.004;2024-01-11T00:55:43;45.67;;;24.63;;
10432;SDS011;5263;48.680;9.004;2024-01-11T00:58:08;50.43;;;24.17;;
10432;SDS011;5263;48.680;9.004;2024-01-11T01:00:34;41.87;;;24.17;;
10432;SDS011;5263;48.680;9.004;2024-01-11T01:02:59;52.50;;;26.03;;
10432;SDS011;5263;48.680;9.004;2024-01-11T01:05:25;46.10;;;24.93;;
10432;SDS011;5263;48.680;9.004;2024-01-11T01:07:50;50.43;;;25.20;;
10432;SDS011;5263;48.680;9.004;2024-01-11T01:10:16;49.27;;;25.03;;
10432;SDS011;5263;48.680;9.004;2024-01-11T01:12:41;50.00;;;24.57;;
10432;SDS011;5263;48.680;9.004;2024-01-11T01:15:07;45.73;;;25.00;;
10432;SDS011;5263;48.680;9.004;2024-01-11T01:17:33;48.17;;;25.33;;
10432;SDS011;5263;48.680;9.004;2024-01-11T01:19:58;39.60;;;23.60;;
10432;SDS011;5263;48.680;9.004;2024-01-11T01:22:24;46.23;;;25.33;;
10432;SDS011;5263;48.680;9.004;2024-01-11T01:24:49;45.80;;;24.53;;
10432;SDS011;5263;48.680;9.004;2024-01-11T01:27:16;53.57;;;26.10;;
10432;SDS011;5263;48.680;9.004;2024-01-11T01:29:41;44.87;;;24.67;;
10432;SDS011;5263;48.680;9.004;2024-01-11T01:32:07;42.93;;;23.97;;
10432;SDS011;5263;48.680;9.004;2024-01-11T01:34:32;40.57;;;22.77;;
10432;SDS011;5263;48.680;9.004;2024-01-11T01:36:58;43.20;;;24.47;;
10432;SDS011;5263;48.680;9.004;2024-01-11T01:39:24;46.13;;;23.53;;
10432;SDS011;5263;48.680;9.004;2024-01-11T01:41:49;47.80;;;25.33;;
10432;SDS011;5263;48.680;9.004;2024-01-11T01:44:15;45.13;;;24.83;;
10432;SDS011;5263;48.680;9.004;2024-01-11T01:46:40;44.20;;;23.67;;
10432;SDS011;5263;48.680;9.004;2024-01-11T01:49:06;43.70;;;24.27;;
10432;SDS011;5263;48.680;9.004;2024-01-11T01:51:32;42.70;;;24.33;;
10432;SDS011;5263;48.680;9.004;2024-01-11T01:53:58;39.70;;;22.63;;
10432;SDS011;5263;48.680;9.004;2024-01-11T01:56:26;41.73;;;24.20;;
10432;SDS011;5263;48.680;9.004;2024-01-11T01:58:53;45.50;;;24.93;;
10432;SDS011;5263;48.680;9.004;2024-01-11T02:01:19;44.03;;;25.20;;
10432;SDS011;5263;48.680;9.004;2024-01-11T02:03:47;44.97;;;24.20;;
10432;SDS011;5263;48.680;9.004;2024-01-11T02:06:16;46.37;;;24.40;;
10432;SDS011;5263;48.680;9.004;2024-01-11T02:08:43;43.13;;;23.50;;
10432;SDS011;5263;48.680;9.004;2024-01-11T02:11:10;41.73;;;24.10;;
10432;SDS011;5263;48.680;9.004;2024-01-11T02:13:36;44.10;;;24.33;;
10432;SDS011;5263;48.680;9.004;2024-01-11T02:16:03;48.37;;;24.73;;
10432;SDS011;5263;48.680;9.004;2024-01-11T02:18:29;42.17;;;23.90;;
10432;SDS011;5263;48.680;9.004;2024-01-11T02:20:55;49.63;;;24.97;;
10432;SDS011;5263;48.680;9.004;2024-01-11T02:23:21;43.70;;;25.60;;
10432;SDS011;5263;48.680;9.004;2024-01-11T02:25:49;44.37;;;24.67;;
10432;SDS011;5263;48.680;9.004;2024-01-11T02:28:15;45.67;;;23.10;;
10432;SDS011;5263;48.680;9.004;2024-01-11T02:30:40;48.43;;;24.73;;
10432;SDS011;5263;48.680;9.004;2024-01-11T02:33:07;40.10;;;24.23;;
10432;SDS011;5263;48.680;9.004;2024-01-11T02:35:33;40.13;;;22.80;;
10432;SDS011;5263;48.680;9.004;2024-01-11T02:38:00;49.73;;;25.47;;
10432;SDS011;5263;48.680;9.004;2024-01-11T02:40:26;54.50;;;27.43;;
10432;SDS011;5263;48.680;9.004;2024-01-11T02:42:52;48.00;;;24.73;;
10432;SDS011;5263;48.680;9.004;2024-01-11T02:45:17;42.97;;;24.23;;
10432;SDS011;5263;48.680;9.004;2024-01-11T02:47:43;39.57;;;21.87;;
10432;SDS011;5263;48.680;9.004;2024-01-11T02:50:09;47.10;;;25.87;;
10432;SDS011;5263;48.680;9.004;2024-01-11T02:52:36;44.60;;;23.70;;
10432;SDS011;5263;48.680;9.004;2024-01-11T02:55:02;41.17;;;23.70;;
10432;SDS011;5263;48.680;9.004;2024-01-11T02:57:28;47.27;;;23.90;;
10432;SDS011;5263;48.680;9.004;2024-01-11T02:59:54;38.67;;;22.97;;
10432;SDS011;5263;48.680;9.004;2024-01-11T03:02:19;42.87;;;23.53;;
10432;SDS011;5263;48.680;9.004;2024-01-11T03:04:45;52.67;;;26.13;;
10432;SDS011;5263;48.680;9.004;2024-01-11T03:07:11;45.73;;;23.73;;
10432;SDS011;5263;48.680;9.004;2024-01-11T03:09:36;44.67;;;24.97;;
10432;SDS011;5263;48.680;9.004;2024-01-11T03:12:02;45.73;;;23.97;;
10432;SDS011;5263;48.680;9.004;2024-01-11T03:14:28;40.73;;;24.63;;
10432;SDS011;5263;48.680;9.004;2024-01-11T03:16:53;45.07;;;23.60;;
10432;SDS011;5263;48.680;9.004;2024-01-11T03:19:19;43.13;;;23.53;;
10432;SDS011;5263;48.680;9.004;2024-01-11T03:21:45;50.47;;;24.80;;
10432;SDS011;5263;48.680;9.004;2024-01-11T03:24:11;44.03;;;24.33;;
10432;SDS011;5263;48.680;9.004;2024-01-11T03:26:37;43.10;;;24.80;;
10432;SDS011;5263;48.680;9.004;2024-01-11T03:29:03;45.47;;;25.30;;
10432;SDS011;5263;48.680;9.004;2024-01-11T03:31:28;52.80;;;24.80;;
10432;SDS011;5263;48.680;9.004;2024-01-11T03:33:54;42.17;;;24.83;;
10432;SDS011;5263;48.680;9.004;2024-01-11T03:36:23;43.40;;;24.03;;
10432;SDS011;5263;48.680;9.004;2024-01-11T03:38:49;42.40;;;23.57;;
10432;SDS011;5263;48.680;9.004;2024-01-11T03:41:15;47.80;;;25.73;;
10432;SDS011;5263;48.680;9.004;2024-01-11T03:43:41;42.17;;;23.73;;
10432;SDS011;5263;48.680;9.004;2024-01-11T03:46:06;48.87;;;26.30;;
10432;SDS011;5263;48.680;9.004;2024-01-11T03:48:32;47.47;;;24.73;;
10432;SDS011;5263;48.680;9.004;2024-01-11T03:50:58;44.00;;;24.03;;
10432;SDS011;5263;48.680;9.004;2024-01-11T03:53:23;43.13;;;25.10;;
10432;SDS011;5263;48.680;9.004;2024-01-11T03:55:49;42.67;;;23.33;;
10432;SDS011;5263;48.680;9.004;2024-01-11T03:58:14;47.97;;;25.07;;
10432;SDS011;5263;48.680;9.004;2024-01-11T04:00:40;44.00;;;22.80;;
10432;SDS011;5263;48.680;9.004;2024-01-11T04:03:06;51.77;;;23.80;;
10432;SDS011;5263;48.680;9.004;2024-01-11T04:05:32;47.20;;;25.30;;
10432;SDS011;5263;48.680;9.004;2024-01-11T04:07:57;45.67;;;24.90;;
10432;SDS011;5263;48.680;9.004;2024-01-11T04:10:23;45.00;;;22.53;;
10432;SDS011;5263;48.680;9.004;2024-01-11T04:12:48;39.60;;;20.77;;
10432;SDS011;5263;48.680;9.004;2024-01-11T04:15:14;42.07;;;22.17;;
10432;SDS011;5263;48.680;9.004;2024-01-11T04:17:40;45.13;;;23.30;;
10432;SDS011;5263;48.680;9.004;2024-01-11T04:20:06;44.70;;;24.53;;
10432;SDS011;5263;48.680;9.004;2024-01-11T04:22:33;46.43;;;24.50;;
10432;SDS011;5263;48.680;9.004;2024-01-11T04:24:59;43.47;;;23.90;;
10432;SDS011;5263;48.680;9.004;2024-01-11T04:27:25;46.70;;;24.97;;
10432;SDS011;5263;48.680;9.004;2024-01-11T04:29:51;47.23;;;24.30;;
10432;SDS011;5263;48.680;9.004;2024-01-11T04:32:16;45.40;;;23.23;;
10432;SDS011;5263;48.680;9.004;2024-01-11T04:34:42;44.13;;;23.57;;
10432;SDS011;5263;48.680;9.004;2024-01-11T04:37:07;43.60;;;22.40;;
10432;SDS011;5263;48.680;9.004;2024-01-11T04:39:33;44.33;;;24.43;;
10432;SDS011;5263;48.680;9.004;2024-01-11T04:41:59;42.17;;;23.30;;
10432;SDS011;5263;48.680;9.004;2024-01-11T04:44:25;46.23;;;22.80;;
10432;SDS011;5263;48.680;9.004;2024-01-11T04:46:51;41.13;;;23.37;;
10432;SDS011;5263;48.680;9.004;2024-01-11T04:49:17;44.67;;;24.37;;
10432;SDS011;5263;48.680;9.004;2024-01-11T04:51:42;42.53;;;24.07;;
10432;SDS011;5263;48.680;9.004;2024-01-11T04:54:08;54.43;;;25.43;;
10432;SDS011;5263;48.680;9.004;2024-01-11T04:56:33;48.20;;;24.43;;
10432;SDS011;5263;48.680;9.004;2024-01-11T04:58:59;46.50;;;25.13;;
10432;SDS011;5263;48.680;9.004;2024-01-11T05:01:24;51.30;;;25.73;;
10432;SDS011;5263;48.680;9.004;2024-01-11T05:03:50;39.73;;;19.20;;
10432;SDS011;5263;48.680;9.004;2024-01-11T05:06:16;50.97;;;25.90;;
10432;SDS011;5263;48.680;9.004;2024-01-11T05:08:43;55.67;;;27.43;;
10432;SDS011;5263;48.680;9.004;2024-01-11T05:11:15;47.30;;;26.50;;
10432;SDS011;5263;48.680;9.004;2024-01-11T05:13:43;45.70;;;25.60;;
10432;SDS011;5263;48.680;9.004;2024-01-11T05:16:22;46.53;;;24.83;;
10432;SDS011;5263;48.680;9.004;2024-01-11T05:18:49;44.77;;;22.70;;
10432;SDS011;5263;48.680;9.004;2024-01-11T05:21:15;42.67;;;23.30;;
10432;SDS011;5263;48.680;9.004;2024-01-11T05:23:41;49.00;;;23.63;;
10432;SDS011;5263;48.680;9.004;2024-01-11T05:26:07;40.87;;;24.10;;
10432;SDS011;5263;48.680;9.004;2024-01-11T05:28:33;38.23;;;22.40;;
10432;SDS011;5263;48.680;9.004;2024-01-11T05:30:59;38.13;;;22.23;;
10432;SDS011;5263;48.680;9.004;2024-01-11T05:33:24;37.77;;;22.10;;
10432;SDS011;5263;48.680;9.004;2024-01-11T05:35:50;49.17;;;22.53;;
10432;SDS011;5263;48.680;9.004;2024-01-11T05:38:17;38.00;;;23.33;;
10432;SDS011;5263;48.680;9.004;2024-01-11T05:40:42;39.73;;;21.97;;
10432;SDS011;5263;48.680;9.004;2024-01-11T05:43:08;45.80;;;23.40;;
10432;SDS011;5263;48.680;9.004;2024-01-11T05:45:33;51.63;;;23.73;;
10432;SDS011;5263;48.680;9.004;2024-01-11T05:47:59;41.07;;;23.10;;
10432;SDS011;5263;48.680;9.004;2024-01-11T05:50:24;47.17;;;23.80;;
10432;SDS011;5263;48.680;9.004;2024-01-11T05:52:51;48.30;;;23.80;;
10432;SDS011;5263;48.680;9.004;2024-01-11T05:55:18;42.03;;;23.87;;
10432;SDS011;5263;48.680;9.004;2024-01-11T05:57:44;43.13;;;24.80;;
10432;SDS011;5263;48.680;9.004;2024-01-11T06:00:10;44.50;;;24.10;;
10432;SDS011;5263;48.680;9.004;2024-01-11T06:02:36;42.47;;;22.07;;
10432;SDS011;5263;48.680;9.004;2024-01-11T06:05:02;43.63;;;23.80;;
10432;SDS011;5263;48.680;9.004;2024-01-11T06:07:28;55.30;;;23.17;;
10432;SDS011;5263;48.680;9.004;2024-01-11T06:09:54;41.13;;;22.93;;
10432;SDS011;5263;48.680;9.004;2024-01-11T06:12:19;51.07;;;25.33;;
10432;SDS011;5263;48.680;9.004;2024-01-11T06:14:45;46.17;;;23.50;;
10432;SDS011;5263;48.680;9.004;2024-01-11T06:17:11;38.47;;;21.20;;
10432;SDS011;5263;48.680;9.004;2024-01-11T06:19:37;45.33;;;23.17;;
10432;SDS011;5263;48.680;9.004;2024-01-11T06:22:03;42.40;;;21.77;;
10432;SDS011;5263;48.680;9.004;2024-01-11T06:24:30;47.50;;;23.17;;
10432;SDS011;5263;48.680;9.004;2024-01-11T06:26:55;45.40;;;23.33;;
10432;SDS011;5263;48.680;9.004;2024-01-11T06:29:21;40.90;;;21.07;;
10432;SDS011;5263;48.680;9.004;2024-01-11T06:31:46;42.80;;;21.77;;
10432;SDS011;5263;48.680;9.004;2024-01-11T06:34:12;43.17;;;23.27;;
10432;SDS011;5263;48.680;9.004;2024-01-11T06:36:37;45.50;;;24.37;;
10432;SDS011;5263;48.680;9.004;2024-01-11T06:39:03;42.87;;;21.77;;
10432;SDS011;5263;48.680;9.004;2024-01-11T06:41:29;45.80;;;24.50;;
10432;SDS011;5263;48.680;9.004;2024-01-11T06:43:54;52.53;;;25.33;;
10432;SDS011;5263;48.680;9.004;2024-01-11T06:46:20;45.57;;;22.90;;
10432;SDS011;5263;48.680;9.004;2024-01-11T06:48:46;54.13;;;25.17;;
10432;SDS011;5263;48.680;9.004;2024-01-11T06:51:16;43.17;;;23.03;;
10432;SDS011;5263;48.680;9.004;2024-01-11T06:53:42;45.80;;;25.87;;
10432;SDS011;5263;48.680;9.004;2024-01-11T06:56:17;48.50;;;25.40;;
10432;SDS011;5263;48.680;9.004;2024-01-11T06:58:44;47.43;;;26.73;;
10432;SDS011;5263;48.680;9.004;2024-01-11T07:01:10;41.57;;;23.40;;
10432;SDS011;5263;48.680;9.004;2024-01-11T07:03:37;46.60;;;25.60;;
10432;SDS011;5263;48.680;9.004;2024-01-11T07:06:03;47.33;;;24.80;;
10432;SDS011;5263;48.680;9.004;2024-01-11T07:08:29;47.20;;;23.97;;
10432;SDS011;5263;48.680;9.004;2024-01-11T07:10:55;51.17;;;25.03;;
10432;SDS011;5263;48.680;9.004;2024-01-11T07:13:21;46.43;;;23.00;;
10432;SDS011;5263;48.680;9.004;2024-01-11T07:15:47;47.37;;;23.80;;
10432;SDS011;5263;48.680;9.004;2024-01-11T07:18:13;49.00;;;25.73;;
10432;SDS011;5263;48.680;9.004;2024-01-11T07:20:39;45.40;;;24.97;;
10432;SDS011;5263;48.680;9.004;2024-01-11T07:23:05;45.33;;;23.77;;
10432;SDS011;5263;48.680;9.004;2024-01-11T07:25:30;52.87;;;25.30;;
10432;SDS011;5263;48.680;9.004;2024-01-11T07:27:57;45.30;;;24.53;;
10432;SDS011;5263;48.680;9.004;2024-01-11T07:30:22;44.03;;;23.33;;
10432;SDS011;5263;48.680;9.004;2024-01-11T07:32:48;53.73;;;25.27;;
10432;SDS011;5263;48.680;9.004;2024-01-11T07:35:13;48.50;;;24.93;;
10432;SDS011;5263;48.680;9.004;2024-01-11T07:37:39;44.17;;;26.47;;
10432;SDS011;5263;48.680;9.004;2024-01-11T07:40:05;45.90;;;26.73;;
10432;SDS011;5263;48.680;9.004;2024-01-11T07:42:38;46.23;;;25.50;;
10432;SDS011;5263;48.680;9.004;2024-01-11T07:45:05;51.10;;;27.30;;
10432;SDS011;5263;48.680;9.004;2024-01-11T07:47:32;49.43;;;26.00;;
10432;SDS011;5263;48.680;9.004;2024-01-11T07:49:58;55.03;;;26.50;;
10432;SDS011;5263;48.680;9.004;2024-01-11T07:52:24;48.70;;;24.50;;
10432;SDS011;5263;48.680;9.004;2024-01-11T07:54:50;53.83;;;27.90;;
10432;SDS011;5263;48.680;9.004;2024-01-11T07:57:15;51.83;;;26.77;;
10432;SDS011;5263;48.680;9.004;2024-01-11T07:59:41;48.47;;;27.93;;
10432;SDS011;5263;48.680;9.004;2024-01-11T08:02:06;49.93;;;27.17;;
10432;SDS011;5263;48.680;9.004;2024-01-11T08:04:32;44.17;;;24.30;;
10432;SDS011;5263;48.680;9.004;2024-01-11T08:06:58;44.07;;;26.43;;
10432;SDS011;5263;48.680;9.004;2024-01-11T08:09:27;52.03;;;27.40;;
10432;SDS011;5263;48.680;9.004;2024-01-11T08:11:53;47.47;;;27.37;;
10432;SDS011;5263;48.680;9.004;2024-01-11T08:14:19;52.13;;;26.37;;
10432;SDS011;5263;48.680;9.004;2024-01-11T08:16:45;47.43;;;25.23;;
10432;SDS011;5263;48.680;9.004;2024-01-11T08:19:11;52.23;;;27.00;;
10432;SDS011;5263;48.680;9.004;2024-01-11T08:21:38;50.77;;;27.13;;
10432;SDS011;5263;48.680;9.004;2024-01-11T08:24:04;50.27;;;26.23;;
10432;SDS011;5263;48.680;9.004;2024-01-11T08:26:31;48.90;;;26.30;;
10432;SDS011;5263;48.680;9.004;2024-01-11T08:28:57;52.67;;;27.70;;
10432;SDS011;5263;48.680;9.004;2024-01-11T08:31:22;54.23;;;27.70;;
10432;SDS011;5263;48.680;9.004;2024-01-11T08:33:48;45.50;;;23.93;;
10432;SDS011;5263;48.680;9.004;2024-01-11T08:36:14;46.17;;;24.63;;
10432;SDS011;5263;48.680;9.004;2024-01-11T08:38:40;43.73;;;25.90;;
10432;SDS011;5263;48.680;9.004;2024-01-11T08:41:06;41.80;;;24.90;;
10432;SDS011;5263;48.680;9.004;2024-01-11T08:43:31;46.33;;;25.57;;
10432;SDS011;5263;48.680;9.004;2024-01-11T08:45:57;52.17;;;28.10;;
10432;SDS011;5263;48.680;9.004;2024-01-11T08:48:24;47.07;;;26.07;;
10432;SDS011;5263;48.680;9.004;2024-01-11T08:50:49;47.60;;;26.53;;
10432;SDS011;5263;48.680;9.004;2024-01-11T08:53:15;45.37;;;25.17;;
10432;SDS011;5263;48.680;9.004;2024-01-11T08:55:41;42.03;;;25.30;;
10432;SDS011;5263;48.680;9.004;2024-01-11T08:58:07;47.90;;;25.47;;
10432;SDS011;5263;48.680;9.004;2024-01-11T09:00:33;48.63;;;24.77;;
10432;SDS011;5263;48.680;9.004;2024-01-11T09:02:59;43.90;;;25.27;;
10432;SDS011;5263;48.680;9.004;2024-01-11T09:05:24;45.10;;;24.30;;
10432;SDS011;5263;48.680;9.004;2024-01-11T09:07:50;43.70;;;23.10;;
10432;SDS011;5263;48.680;9.004;2024-01-11T09:10:15;42.33;;;24.57;;
10432;SDS011;5263;48.680;9.004;2024-01-11T09:12:41;48.73;;;26.27;;
10432;SDS011;5263;48.680;9.004;2024-01-11T09:15:07;47.90;;;24.50;;
10432;SDS011;5263;48.680;9.004;2024-01-11T09:17:32;45.53;;;25.23;;
10432;SDS011;5263;48.680;9.004;2024-01-11T09:19:58;52.10;;;25.43;;
10432;SDS011;5263;48.680;9.004;2024-01-11T09:22:24;47.43;;;25.17;;
10432;SDS011;5263;48.680;9.004;2024-01-11T09:24:49;45.73;;;25.80;;
10432;SDS011;5263;48.680;9.004;2024-01-11T09:27:15;49.57;;;26.17;;
10432;SDS011;5263;48.680;9.004;2024-01-11T09:29:44;48.70;;;26.53;;
10432;SDS011;5263;48.680;9.004;2024-01-11T09:32:10;48.07;;;25.70;;
10432;SDS011;5263;48.680;9.004;2024-01-11T09:34:37;45.67;;;25.80;;
10432;SDS011;5263;48.680;9.004;2024-01-11T09:37:02;47.87;;;26.07;;
10432;SDS011;5263;48.680;9.004;2024-01-11T09:39:28;44.23;;;25.17;;
10432;SDS011;5263;48.680;9.004;2024-01-11T09:41:58;47.13;;;26.67;;
10432;SDS011;5263;48.680;9.004;2024-01-11T09:44:31;43.40;;;24.37;;
10432;SDS011;5263;48.680;9.004;2024-01-11T09:46:58;44.27;;;25.80;;
10432;SDS011;5263;48.680;9.004;2024-01-11T09:49:26;41.90;;;25.57;;
10432;SDS011;5263;48.680;9.004;2024-01-11T09:51:54;42.77;;;25.40;;
10432;SDS011;5263;48.680;9.004;2024-01-11T09:54:22;45.80;;;25.67;;
10432;SDS011;5263;48.680;9.004;2024-01-11T09:56:50;42.40;;;26.13;;
10432;SDS011;5263;48.680;9.004;2024-01-11T09:59:18;41.80;;;25.37;;
10432;SDS011;5263;48.680;9.004;2024-01-11T10:01:45;38.63;;;23.77;;
10432;SDS011;5263;48.680;9.004;2024-01-11T10:04:11;49.07;;;26.23;;
10432;SDS011;5263;48.680;9.004;2024-01-11T10:06:39;42.87;;;24.13;;
10432;SDS011;5263;48.680;9.004;2024-01-11T10:09:06;37.73;;;24.47;;
10432;SDS011;5263;48.680;9.004;2024-01-11T10:11:32;42.43;;;25.07;;
10432;SDS011;5263;48.680;9.004;2024-01-11T10:13:59;34.63;;;24.23;;
10432;SDS011;5263;48.680;9.004;2024-01-11T10:16:26;42.87;;;24.73;;
10432;SDS011;5263;48.680;9.004;2024-01-11T10:18:54;38.63;;;24.33;;
10432;SDS011;5263;48.680;9.004;2024-01-11T10:21:20;37.27;;;24.40;;
10432;SDS011;5263;48.680;9.004;2024-01-11T10:23:46;35.10;;;24.07;;
10432;SDS011;5263;48.680;9.004;2024-01-11T10:26:11;37.30;;;25.10;;
10432;SDS011;5263;48.680;9.004;2024-01-11T10:28:42;36.23;;;23.97;;
10432;SDS011;5263;48.680;9.004;2024-01-11T10:31:09;38.73;;;24.23;;
10432;SDS011;5263;48.680;9.004;2024-01-11T10:33:35;37.20;;;25.63;;
10432;SDS011;5263;48.680;9.004;2024-01-11T10:36:01;35.07;;;24.53;;
10432;SDS011;5263;48.680;9.004;2024-01-11T10:38:26;36.57;;;24.80;;
10432;SDS011;5263;48.680;9.004;2024-01-11T10:41:00;35.23;;;24.57;;
10432;SDS011;5263;48.680;9.004;2024-01-11T10:43:31;33.63;;;22.50;;
10432;SDS011;5263;48.680;9.004;2024-01-11T10:45:59;34.72;;;27.20;;
10432;SDS011;5263;48.680;9.004;2024-01-11T10:48:28;34.60;;;25.40;;
10432;SDS011;5263;48.680;9.004;2024-01-11T10:50:59;36.57;;;23.83;;
10432;SDS011;5263;48.680;9.004;2024-01-11T10:56:05;30.20;;;23.00;;
10432;SDS011;5263;48.680;9.004;2024-01-11T10:58:34;35.13;;;23.17;;
10432;SDS011;5263;48.680;9.004;2024-01-11T11:01:00;36.23;;;24.73;;
10432;SDS011;5263;48.680;9.004;2024-01-11T11:03:27;37.17;;;26.00;;
10432;SDS011;5263;48.680;9.004;2024-01-11T11:05:56;38.93;;;25.67;;
10432;SDS011;5263;48.680;9.004;2024-01-11T11:08:23;38.73;;;26.23;;
10432;SDS011;5263;48.680;9.004;2024-01-11T11:10:55;37.83;;;26.90;;
10432;SDS011;5263;48.680;9.004;2024-01-11T11:13:22;34.47;;;25.70;;
10432;SDS011;5263;48.680;9.004;2024-01-11T11:15:48;38.40;;;26.23;;
10432;SDS011;5263;48.680;9.004;2024-01-11T11:18:14;37.03;;;25.03;;
10432;SDS011;5263;48.680;9.004;2024-01-11T11:20:41;39.97;;;27.07;;
10432;SDS011;5263;48.680;9.004;2024-01-11T11:23:07;35.60;;;24.87;;
10432;SDS011;5263;48.680;9.004;2024-01-11T11:25:35;37.80;;;24.87;;
10432;SDS011;5263;48.680;9.004;2024-01-11T11:28:01;41.07;;;27.97;;
10432;SDS011;5263;48.680;9.004;2024-01-11T11:30:29;34.13;;;25.67;;
10432;SDS011;5263;48.680;9.004;2024-01-11T11:32:55;34.60;;;26.67;;
10432;SDS011;5263;48.680;9.004;2024-01-11T11:35:24;36.00;;;25.10;;
10432;SDS011;5263;48.680;9.004;2024-01-11T11:37:56;40.73;;;28.30;;
10432;SDS011;5263;48.680;9.004;2024-01-11T11:40:31;43.20;;;27.53;;
10432;SDS011;5263;48.680;9.004;2024-01-11T11:43:00;41.97;;;27.77;;
10432;SDS011;5263;48.680;9.004;2024-01-11T11:45:27;40.73;;;26.80;;
10432;SDS011;5263;48.680;9.004;2024-01-11T11:47:53;38.77;;;27.03;;
10432;SDS011;5263;48.680;9.004;2024-01-11T11:50:21;38.43;;;25.83;;
10432;SDS011;5263;48.680;9.004;2024-01-11T11:52:47;38.00;;;26.53;;
10432;SDS011;5263;48.680;9.004;2024-01-11T11:55:24;40.33;;;25.83;;
10432;SDS011;5263;48.680;9.004;2024-01-11T11:57:50;35.03;;;25.73;;
10432;SDS011;5263;48.680;9.004;2024-01-11T12:00:19;38.17;;;25.80;;
10432;SDS011;5263;48.680;9.004;2024-01-11T12:02:46;34.90;;;25.60;;
10432;SDS011;5263;48.680;9.004;2024-01-11T12:05:13;36.13;;;25.07;;
10432;SDS011;5263;48.680;9.004;2024-01-11T12:07:39;35.20;;;25.10;;
10432;SDS011;5263;48.680;9.004;2024-01-11T12:10:05;32.63;;;23.70;;
10432;SDS011;5263;48.680;9.004;2024-01-11T12:12:31;34.53;;;25.83;;
10432;SDS011;5263;48.680;9.004;2024-01-11T12:14:59;33.93;;;26.77;;
10432;SDS011;5263;48.680;9.004;2024-01-11T12:17:24;37.10;;;27.47;;
10432;SDS011;5263;48.680;9.004;2024-01-11T12:19:53;35.03;;;27.13;;
10432;SDS011;5263;48.680;9.004;2024-01-11T12:22:19;37.20;;;27.60;;
10432;SDS011;5263;48.680;9.004;2024-01-11T12:24:45;36.17;;;26.60;;
10432;SDS011;5263;48.680;9.004;2024-01-11T12:27:11;36.73;;;26.87;;
10432;SDS011;5263;48.680;9.004;2024-01-11T12:29:38;31.17;;;26.23;;
10432;SDS011;5263;48.680;9.004;2024-01-11T12:32:05;33.23;;;25.07;;
10432;SDS011;5263;48.680;9.004;2024-01-11T12:34:30;29.93;;;24.20;;
10432;SDS011;5263;48.680;9.004;2024-01-11T12:36:57;31.07;;;25.30;;
10432;SDS011;5263;48.680;9.004;2024-01-11T12:39:25;28.93;;;21.80;;
10432;SDS011;5263;48.680;9.004;2024-01-11T12:41:52;32.17;;;24.33;;
10432;SDS011;5263;48.680;9.004;2024-01-11T12:44:21;31.40;;;26.03;;
10432;SDS011;5263;48.680;9.004;2024-01-11T12:46:47;31.93;;;25.17;;
10432;SDS011;5263;48.680;9.004;2024-01-11T12:49:14;36.67;;;26.33;;
10432;SDS011;5263;48.680;9.004;2024-01-11T12:51:40;29.70;;;23.87;;
10432;SDS011;5263;48.680;9.004;2024-01-11T12:54:10;27.75;;;23.17;;
10432;SDS011;5263;48.680;9.004;2024-01-11T12:56:41;23.83;;;19.20;;
10432;SDS011;5263;48.680;9.004;2024-01-11T12:59:08;30.43;;;21.53;;
10432;SDS011;5263;48.680;9.004;2024-01-11T13:01:36;26.83;;;20.53;;
10432;SDS011;5263;48.680;9.004;2024-01-11T13:04:02;24.87;;;19.60;;
10432;SDS011;5263;48.680;9.004;2024-01-11T13:06:28;22.03;;;18.03;;
10432;SDS011;5263;48.680;9.004;2024-01-11T13:08:59;25.23;;;19.07;;
10432;SDS011;5263;48.680;9.004;2024-01-11T13:11:24;26.53;;;21.10;;
10432;SDS011;5263;48.680;9.004;2024-01-11T13:13:50;24.10;;;18.43;;
10432;SDS011;5263;48.680;9.004;2024-01-11T13:16:17;24.90;;;20.07;;
10432;SDS011;5263;48.680;9.004;2024-01-11T13:18:44;29.90;;;20.33;;
10432;SDS011;5263;48.680;9.004;2024-01-11T13:21:10;25.30;;;18.73;;
10432;SDS011;5263;48.680;9.004;2024-01-11T13:23:37;24.27;;;18.77;;
10432;SDS011;5263;48.680;9.004;2024-01-11T13:26:03;29.60;;;20.43;;
10432;SDS011;5263;48.680;9.004;2024-01-11T13:28:29;39.83;;;21.97;;
10432;SDS011;5263;48.680;9.004;2024-01-11T13:30:55;24.67;;;20.10;;
10432;SDS011;5263;48.680;9.004;2024-01-11T13:33:21;26.27;;;19.30;;
10432;SDS011;5263;48.680;9.004;2024-01-11T13:35:48;24.47;;;20.07;;
10432;SDS011;5263;48.680;9.004;2024-01-11T13:38:14;24.10;;;19.80;;
10432;SDS011;5263;48.680;9.004;2024-01-11T13:40:40;28.60;;;20.17;;
10432;SDS011;5263;48.680;9.004;2024-01-11T13:43:08;32.00;;;22.73;;
10432;SDS011;5263;48.680;9.004;2024-01-11T13:45:34;31.90;;;21.93;;
10432;SDS011;5263;48.680;9.004;2024-01-11T13:48:01;34.67;;;22.63;;
10432;SDS011;5263;48.680;9.004;2024-01-11T13:50:28;30.03;;;22.13;;
10432;SDS011;5263;48.680;9.004;2024-01-11T13:52:53;32.43;;;22.93;;
10432;SDS011;5263;48.680;9.004;2024-01-11T13:55:19;29.30;;;22.50;;
10432;SDS011;5263;48.680;9.004;2024-01-11T13:57:46;29.13;;;22.47;;
10432;SDS011;5263;48.680;9.004;2024-01-11T14:00:13;26.07;;;20.00;;
10432;SDS011;5263;48.680;9.004;2024-01-11T14:02:39;30.90;;;21.27;;
10432;SDS011;5263;48.680;9.004;2024-01-11T14:05:08;28.90;;;22.63;;
10432;SDS011;5263;48.680;9.004;2024-01-11T14:07:42;30.87;;;20.33;;
10432;SDS011;5263;48.680;9.004;2024-01-11T14:10:10;26.43;;;19.37;;
10432;SDS011;5263;48.680;9.004;2024-01-11T14:12:37;32.23;;;22.73;;
10432;SDS011;5263;48.680;9.004;2024-01-11T14:15:03;30.17;;;21.40;;
10432;SDS011;5263;48.680;9.004;2024-01-11T14:17:30;31.13;;;22.33;;
10432;SDS011;5263;48.680;9.004;2024-01-11T14:19:57;30.33;;;20.63;;
10432;SDS011;5263;48.680;9.004;2024-01-11T14:22:22;29.20;;;21.63;;
10432;SDS011;5263;48.680;9.004;2024-01-11T14:24:49;32.27;;;24.27;;
10432;SDS011;5263;48.680;9.004;2024-01-11T14:27:14;33.50;;;24.07;;
10432;SDS011;5263;48.680;9.004;2024-01-11T14:29:40;38.10;;;26.67;;
10432;SDS011;5263;48.680;9.004;2024-01-11T14:32:06;41.27;;;27.80;;